sensor_id;sensor_type;location;lat;lon;timestamp;P1;durP1;ratioP1;P2;durP2;ratioP2
65375;SDS011;51976;47.332;9.404;2023-06-01T00:00:50;7.10;;;3.10;;
65375;SDS011;51976;47.332;9.404;2023-06-01T00:03:15;6.43;;;2.75;;
65375;SDS011;51976;47.332;9.404;2023-06-01T00:05:40;9.27;;;3.25;;
65375;SDS011;51976;47.332;9.404;2023-06-01T00:08:06;6.88;;;3.30;;
65375;SDS011;51976;47.332;9.404;2023-06-01T00:10:31;5.65;;;2.97;;
65375;SDS011;51976;47.332;9.404;2023-06-01T00:12:57;4.65;;;2.80;;
65375;SDS011;51976;47.332;9.404;2023-06-01T00:15:23;5.18;;;3.40;;
65375;SDS011;51976;47.332;9.404;2023-06-01T00:17:48;6.00;;;3.85;;
65375;SDS011;51976;47.332;9.404;2023-06-01T00:20:16;7.95;;;3.13;;
65375;SDS011;51976;47.332;9.404;2023-06-01T00:22:42;6.95;;;3.05;;
65375;SDS011;51976;47.332;9.404;2023-06-01T00:25:08;5.57;;;2.70;;
65375;SDS011;51976;47.332;9.404;2023-06-01T00:27:34;4.85;;;3.20;;
65375;SDS011;51976;47.332;9.404;2023-06-01T00:29:59;5.35;;;3.10;;
65375;SDS011;51976;47.332;9.404;2023-06-01T00:32:25;5.90;;;2.90;;
65375;SDS011;51976;47.332;9.404;2023-06-01T00:34:50;17.27;;;8.52;;
65375;SDS011;51976;47.332;9.404;2023-06-01T00:37:16;13.82;;;7.05;;
65375;SDS011;51976;47.332;9.404;2023-06-01T00:39:41;9.50;;;6.55;;
65375;SDS011;51976;47.332;9.404;2023-06-01T00:42:07;7.68;;;4.68;;
65375;SDS011;51976;47.332;9.404;2023-06-01T00:44:32;8.77;;;4.35;;
65375;SDS011;51976;47.332;9.404;2023-06-01T00:46:57;6.97;;;3.47;;
65375;SDS011;51976;47.332;9.404;2023-06-01T00:49:24;6.95;;;3.53;;
65375;SDS011;51976;47.332;9.404;2023-06-01T00:51:50;6.07;;;3.35;;
65375;SDS011;51976;47.332;9.404;2023-06-01T00:54:16;5.32;;;3.60;;
65375;SDS011;51976;47.332;9.404;2023-06-01T00:56:42;5.65;;;3.03;;
65375;SDS011;51976;47.332;9.404;2023-06-01T00:59:07;7.60;;;3.22;;
65375;SDS011;51976;47.332;9.404;2023-06-01T01:01:33;5.85;;;3.17;;
65375;SDS011;51976;47.332;9.404;2023-06-01T01:03:58;7.05;;;3.47;;
65375;SDS011;51976;47.332;9.404;2023-06-01T01:06:36;3.97;;;2.75;;
65375;SDS011;51976;47.332;9.404;2023-06-01T01:09:17;11.75;;;3.55;;
65375;SDS011;51976;47.332;9.404;2023-06-01T01:11:57;7.82;;;3.15;;
65375;SDS011;51976;47.332;9.404;2023-06-01T01:14:43;8.55;;;2.80;;
65375;SDS011;51976;47.332;9.404;2023-06-01T01:17:18;10.00;;;3.28;;
65375;SDS011;51976;47.332;9.404;2023-06-01T01:20:04;5.75;;;2.78;;
65375;SDS011;51976;47.332;9.404;2023-06-01T01:22:49;10.13;;;3.22;;
65375;SDS011;51976;47.332;9.404;2023-06-01T01:25:43;4.47;;;3.05;;
65375;SDS011;51976;47.332;9.404;2023-06-01T01:28:46;7.03;;;3.00;;
65375;SDS011;51976;47.332;9.404;2023-06-01T01:31:15;6.38;;;3.08;;
65375;SDS011;51976;47.332;9.404;2023-06-01T01:33:43;8.00;;;3.40;;
65375;SDS011;51976;47.332;9.404;2023-06-01T01:36:11;10.85;;;3.28;;
65375;SDS011;51976;47.332;9.404;2023-06-01T01:38:37;5.57;;;3.15;;
65375;SDS011;51976;47.332;9.404;2023-06-01T01:41:03;6.72;;;3.25;;
65375;SDS011;51976;47.332;9.404;2023-06-01T01:43:30;4.25;;;2.95;;
65375;SDS011;51976;47.332;9.404;2023-06-01T01:46:02;4.78;;;3.10;;
65375;SDS011;51976;47.332;9.404;2023-06-01T01:49:07;6.95;;;2.72;;
65375;SDS011;51976;47.332;9.404;2023-06-01T01:51:51;4.22;;;2.83;;
65375;SDS011;51976;47.332;9.404;2023-06-01T01:54:23;7.22;;;2.88;;
65375;SDS011;51976;47.332;9.404;2023-06-01T01:56:49;10.50;;;3.83;;
65375;SDS011;51976;47.332;9.404;2023-06-01T01:59:18;5.18;;;2.97;;
65375;SDS011;51976;47.332;9.404;2023-06-01T02:01:44;5.38;;;3.05;;
65375;SDS011;51976;47.332;9.404;2023-06-01T02:04:10;4.93;;;3.33;;
65375;SDS011;51976;47.332;9.404;2023-06-01T02:06:35;5.63;;;3.42;;
65375;SDS011;51976;47.332;9.404;2023-06-01T02:09:02;3.90;;;2.63;;
65375;SDS011;51976;47.332;9.404;2023-06-01T02:11:31;5.03;;;3.17;;
65375;SDS011;51976;47.332;9.404;2023-06-01T02:13:56;11.48;;;2.90;;
65375;SDS011;51976;47.332;9.404;2023-06-01T02:16:22;4.82;;;3.13;;
65375;SDS011;51976;47.332;9.404;2023-06-01T02:18:47;7.63;;;3.63;;
65375;SDS011;51976;47.332;9.404;2023-06-01T02:21:13;5.53;;;3.10;;
65375;SDS011;51976;47.332;9.404;2023-06-01T02:23:38;5.60;;;3.40;;
65375;SDS011;51976;47.332;9.404;2023-06-01T02:26:05;5.05;;;3.15;;
65375;SDS011;51976;47.332;9.404;2023-06-01T02:28:31;5.13;;;3.15;;
65375;SDS011;51976;47.332;9.404;2023-06-01T02:30:56;5.28;;;2.92;;
65375;SDS011;51976;47.332;9.404;2023-06-01T02:33:21;4.53;;;3.05;;
65375;SDS011;51976;47.332;9.404;2023-06-01T02:35:50;6.25;;;3.22;;
65375;SDS011;51976;47.332;9.404;2023-06-01T02:38:15;9.40;;;3.40;;
65375;SDS011;51976;47.332;9.404;2023-06-01T02:40:41;6.55;;;3.35;;
65375;SDS011;51976;47.332;9.404;2023-06-01T02:43:06;7.93;;;3.38;;
65375;SDS011;51976;47.332;9.404;2023-06-01T02:45:31;4.78;;;3.28;;
65375;SDS011;51976;47.332;9.404;2023-06-01T02:47:57;5.60;;;3.05;;
65375;SDS011;51976;47.332;9.404;2023-06-01T02:50:22;6.30;;;3.55;;
65375;SDS011;51976;47.332;9.404;2023-06-01T02:52:47;6.07;;;3.28;;
65375;SDS011;51976;47.332;9.404;2023-06-01T02:55:13;6.32;;;3.08;;
65375;SDS011;51976;47.332;9.404;2023-06-01T02:57:38;7.55;;;3.47;;
65375;SDS011;51976;47.332;9.404;2023-06-01T03:00:04;5.28;;;3.38;;
65375;SDS011;51976;47.332;9.404;2023-06-01T03:02:40;5.95;;;2.90;;
65375;SDS011;51976;47.332;9.404;2023-06-01T03:05:06;5.40;;;3.00;;
65375;SDS011;51976;47.332;9.404;2023-06-01T03:07:32;4.82;;;2.63;;
65375;SDS011;51976;47.332;9.404;2023-06-01T03:09:58;4.28;;;2.58;;
65375;SDS011;51976;47.332;9.404;2023-06-01T03:12:23;4.22;;;2.60;;
65375;SDS011;51976;47.332;9.404;2023-06-01T03:14:48;7.45;;;3.28;;
65375;SDS011;51976;47.332;9.404;2023-06-01T03:17:14;5.47;;;2.88;;
65375;SDS011;51976;47.332;9.404;2023-06-01T03:19:39;5.82;;;2.80;;
65375;SDS011;51976;47.332;9.404;2023-06-01T03:22:05;5.05;;;3.17;;
65375;SDS011;51976;47.332;9.404;2023-06-01T03:24:31;4.72;;;3.30;;
65375;SDS011;51976;47.332;9.404;2023-06-01T03:26:57;4.30;;;2.85;;
65375;SDS011;51976;47.332;9.404;2023-06-01T03:29:22;5.18;;;3.05;;
65375;SDS011;51976;47.332;9.404;2023-06-01T03:31:48;4.60;;;3.05;;
65375;SDS011;51976;47.332;9.404;2023-06-01T03:34:14;7.03;;;3.13;;
65375;SDS011;51976;47.332;9.404;2023-06-01T03:36:39;3.70;;;2.85;;
65375;SDS011;51976;47.332;9.404;2023-06-01T03:39:04;9.77;;;3.42;;
65375;SDS011;51976;47.332;9.404;2023-06-01T03:41:33;5.80;;;2.97;;
65375;SDS011;51976;47.332;9.404;2023-06-01T03:43:59;6.45;;;3.25;;
65375;SDS011;51976;47.332;9.404;2023-06-01T03:46:25;4.95;;;2.90;;
65375;SDS011;51976;47.332;9.404;2023-06-01T03:48:50;8.35;;;3.28;;
65375;SDS011;51976;47.332;9.404;2023-06-01T03:51:16;6.53;;;2.83;;
65375;SDS011;51976;47.332;9.404;2023-06-01T03:53:42;6.75;;;3.47;;
65375;SDS011;51976;47.332;9.404;2023-06-01T03:56:08;9.75;;;5.18;;
65375;SDS011;51976;47.332;9.404;2023-06-01T03:58:33;12.82;;;5.93;;
65375;SDS011;51976;47.332;9.404;2023-06-01T04:00:58;8.82;;;4.25;;
65375;SDS011;51976;47.332;9.404;2023-06-01T04:03:25;6.88;;;3.55;;
65375;SDS011;51976;47.332;9.404;2023-06-01T04:05:51;6.07;;;3.85;;
65375;SDS011;51976;47.332;9.404;2023-06-01T04:08:23;8.27;;;4.20;;
65375;SDS011;51976;47.332;9.404;2023-06-01T04:10:49;7.68;;;4.30;;
65375;SDS011;51976;47.332;9.404;2023-06-01T04:13:15;6.78;;;4.30;;
65375;SDS011;51976;47.332;9.404;2023-06-01T04:15:40;6.55;;;4.10;;
65375;SDS011;51976;47.332;9.404;2023-06-01T04:18:06;9.52;;;4.15;;
65375;SDS011;51976;47.332;9.404;2023-06-01T04:20:32;6.72;;;4.68;;
65375;SDS011;51976;47.332;9.404;2023-06-01T04:22:57;5.90;;;3.90;;
65375;SDS011;51976;47.332;9.404;2023-06-01T04:25:23;6.00;;;3.63;;
65375;SDS011;51976;47.332;9.404;2023-06-01T04:27:48;8.70;;;4.18;;
65375;SDS011;51976;47.332;9.404;2023-06-01T04:30:16;9.15;;;4.40;;
65375;SDS011;51976;47.332;9.404;2023-06-01T04:32:42;6.80;;;3.70;;
65375;SDS011;51976;47.332;9.404;2023-06-01T04:35:09;4.40;;;3.10;;
65375;SDS011;51976;47.332;9.404;2023-06-01T04:37:35;5.60;;;3.63;;
65375;SDS011;51976;47.332;9.404;2023-06-01T04:40:03;10.52;;;3.95;;
65375;SDS011;51976;47.332;9.404;2023-06-01T04:42:33;8.40;;;3.58;;
65375;SDS011;51976;47.332;9.404;2023-06-01T04:45:00;7.95;;;3.60;;
65375;SDS011;51976;47.332;9.404;2023-06-01T04:47:29;8.70;;;3.20;;
65375;SDS011;51976;47.332;9.404;2023-06-01T04:49:56;5.20;;;3.40;;
65375;SDS011;51976;47.332;9.404;2023-06-01T04:52:21;9.60;;;3.75;;
65375;SDS011;51976;47.332;9.404;2023-06-01T04:54:47;6.43;;;4.07;;
65375;SDS011;51976;47.332;9.404;2023-06-01T04:57:13;5.60;;;3.35;;
65375;SDS011;51976;47.332;9.404;2023-06-01T04:59:41;6.50;;;3.70;;
65375;SDS011;51976;47.332;9.404;2023-06-01T05:02:07;8.70;;;3.55;;
65375;SDS011;51976;47.332;9.404;2023-06-01T05:04:32;6.20;;;3.38;;
65375;SDS011;51976;47.332;9.404;2023-06-01T05:06:58;5.15;;;3.00;;
65375;SDS011;51976;47.332;9.404;2023-06-01T05:09:23;4.05;;;2.95;;
65375;SDS011;51976;47.332;9.404;2023-06-01T05:11:48;3.00;;;2.55;;
65375;SDS011;51976;47.332;9.404;2023-06-01T05:14:14;4.20;;;2.60;;
65375;SDS011;51976;47.332;9.404;2023-06-01T05:16:39;3.33;;;2.75;;
65375;SDS011;51976;47.332;9.404;2023-06-01T05:19:05;8.00;;;3.03;;
65375;SDS011;51976;47.332;9.404;2023-06-01T05:21:30;6.13;;;3.33;;
65375;SDS011;51976;47.332;9.404;2023-06-01T05:23:59;11.38;;;2.95;;
65375;SDS011;51976;47.332;9.404;2023-06-01T05:26:24;4.63;;;3.13;;
65375;SDS011;51976;47.332;9.404;2023-06-01T05:28:50;6.75;;;3.55;;
65375;SDS011;51976;47.332;9.404;2023-06-01T05:31:15;4.63;;;2.97;;
65375;SDS011;51976;47.332;9.404;2023-06-01T05:33:41;6.72;;;3.03;;
65375;SDS011;51976;47.332;9.404;2023-06-01T05:36:06;6.88;;;3.40;;
65375;SDS011;51976;47.332;9.404;2023-06-01T05:38:32;5.50;;;3.13;;
65375;SDS011;51976;47.332;9.404;2023-06-01T05:40:57;9.48;;;3.40;;
65375;SDS011;51976;47.332;9.404;2023-06-01T05:43:23;9.15;;;3.53;;
65375;SDS011;51976;47.332;9.404;2023-06-01T05:45:48;6.55;;;3.67;;
65375;SDS011;51976;47.332;9.404;2023-06-01T05:48:14;8.15;;;4.25;;
65375;SDS011;51976;47.332;9.404;2023-06-01T05:50:40;10.63;;;5.38;;
65375;SDS011;51976;47.332;9.404;2023-06-01T05:53:06;16.95;;;6.10;;
65375;SDS011;51976;47.332;9.404;2023-06-01T05:55:32;11.40;;;7.07;;
65375;SDS011;51976;47.332;9.404;2023-06-01T05:57:57;12.43;;;7.07;;
65375;SDS011;51976;47.332;9.404;2023-06-01T06:00:23;19.52;;;8.48;;
65375;SDS011;51976;47.332;9.404;2023-06-01T06:02:49;14.88;;;7.63;;
65375;SDS011;51976;47.332;9.404;2023-06-01T06:05:15;16.02;;;7.40;;
65375;SDS011;51976;47.332;9.404;2023-06-01T06:07:40;16.20;;;7.03;;
65375;SDS011;51976;47.332;9.404;2023-06-01T06:10:06;16.63;;;6.78;;
65375;SDS011;51976;47.332;9.404;2023-06-01T06:12:32;13.27;;;6.40;;
65375;SDS011;51976;47.332;9.404;2023-06-01T06:14:57;11.40;;;6.55;;
65375;SDS011;51976;47.332;9.404;2023-06-01T06:17:23;12.25;;;6.22;;
65375;SDS011;51976;47.332;9.404;2023-06-01T06:19:48;11.40;;;6.43;;
65375;SDS011;51976;47.332;9.404;2023-06-01T06:22:17;14.27;;;6.35;;
65375;SDS011;51976;47.332;9.404;2023-06-01T06:24:43;11.80;;;7.00;;
65375;SDS011;51976;47.332;9.404;2023-06-01T06:27:09;10.25;;;6.15;;
65375;SDS011;51976;47.332;9.404;2023-06-01T06:29:34;9.30;;;5.25;;
65375;SDS011;51976;47.332;9.404;2023-06-01T06:32:00;10.45;;;5.35;;
65375;SDS011;51976;47.332;9.404;2023-06-01T06:34:27;11.40;;;5.88;;
65375;SDS011;51976;47.332;9.404;2023-06-01T06:37:00;11.02;;;6.00;;
65375;SDS011;51976;47.332;9.404;2023-06-01T06:39:26;8.80;;;4.70;;
65375;SDS011;51976;47.332;9.404;2023-06-01T06:41:51;9.75;;;4.38;;
65375;SDS011;51976;47.332;9.404;2023-06-01T06:44:19;7.45;;;4.15;;
65375;SDS011;51976;47.332;9.404;2023-06-01T06:46:44;5.78;;;3.53;;
65375;SDS011;51976;47.332;9.404;2023-06-01T06:49:10;8.02;;;3.53;;
65375;SDS011;51976;47.332;9.404;2023-06-01T06:51:36;7.05;;;3.38;;
65375;SDS011;51976;47.332;9.404;2023-06-01T06:54:03;3.80;;;2.92;;
65375;SDS011;51976;47.332;9.404;2023-06-01T06:56:31;6.22;;;3.00;;
65375;SDS011;51976;47.332;9.404;2023-06-01T06:58:57;5.57;;;3.20;;
65375;SDS011;51976;47.332;9.404;2023-06-01T07:01:22;6.10;;;3.47;;
65375;SDS011;51976;47.332;9.404;2023-06-01T07:03:50;5.05;;;3.13;;
65375;SDS011;51976;47.332;9.404;2023-06-01T07:06:18;10.30;;;3.80;;
65375;SDS011;51976;47.332;9.404;2023-06-01T07:08:45;5.32;;;3.28;;
65375;SDS011;51976;47.332;9.404;2023-06-01T07:11:15;6.68;;;3.30;;
65375;SDS011;51976;47.332;9.404;2023-06-01T07:13:42;5.90;;;3.15;;
65375;SDS011;51976;47.332;9.404;2023-06-01T07:16:07;11.77;;;3.63;;
65375;SDS011;51976;47.332;9.404;2023-06-01T07:18:33;6.80;;;3.80;;
65375;SDS011;51976;47.332;9.404;2023-06-01T07:20:58;8.90;;;3.33;;
65375;SDS011;51976;47.332;9.404;2023-06-01T07:23:24;8.73;;;4.10;;
65375;SDS011;51976;47.332;9.404;2023-06-01T07:25:49;12.18;;;4.50;;
65375;SDS011;51976;47.332;9.404;2023-06-01T07:28:15;8.80;;;4.22;;
65375;SDS011;51976;47.332;9.404;2023-06-01T07:30:41;10.05;;;4.40;;
65375;SDS011;51976;47.332;9.404;2023-06-01T07:33:06;12.13;;;5.60;;
65375;SDS011;51976;47.332;9.404;2023-06-01T07:35:33;8.48;;;5.90;;
65375;SDS011;51976;47.332;9.404;2023-06-01T07:37:58;10.23;;;5.35;;
65375;SDS011;51976;47.332;9.404;2023-06-01T07:40:24;9.63;;;4.85;;
65375;SDS011;51976;47.332;9.404;2023-06-01T07:42:50;12.07;;;4.32;;
65375;SDS011;51976;47.332;9.404;2023-06-01T07:45:16;9.70;;;6.90;;
65375;SDS011;51976;47.332;9.404;2023-06-01T07:47:42;6.55;;;4.47;;
65375;SDS011;51976;47.332;9.404;2023-06-01T07:50:09;13.45;;;5.15;;
65375;SDS011;51976;47.332;9.404;2023-06-01T07:52:35;10.82;;;5.25;;
65375;SDS011;51976;47.332;9.404;2023-06-01T07:55:02;8.32;;;4.32;;
65375;SDS011;51976;47.332;9.404;2023-06-01T07:57:28;8.18;;;3.50;;
65375;SDS011;51976;47.332;9.404;2023-06-01T07:59:53;5.72;;;3.67;;
65375;SDS011;51976;47.332;9.404;2023-06-01T08:02:19;5.95;;;3.28;;
65375;SDS011;51976;47.332;9.404;2023-06-01T08:04:45;5.28;;;3.45;;
65375;SDS011;51976;47.332;9.404;2023-06-01T08:07:12;5.20;;;3.13;;
65375;SDS011;51976;47.332;9.404;2023-06-01T08:09:39;7.47;;;3.20;;
65375;SDS011;51976;47.332;9.404;2023-06-01T08:12:05;8.10;;;3.88;;
65375;SDS011;51976;47.332;9.404;2023-06-01T08:14:30;5.20;;;3.00;;
65375;SDS011;51976;47.332;9.404;2023-06-01T08:16:58;5.63;;;3.58;;
65375;SDS011;51976;47.332;9.404;2023-06-01T08:19:27;8.77;;;4.40;;
65375;SDS011;51976;47.332;9.404;2023-06-01T08:21:56;16.00;;;4.40;;
65375;SDS011;51976;47.332;9.404;2023-06-01T08:24:22;7.15;;;4.25;;
65375;SDS011;51976;47.332;9.404;2023-06-01T08:26:48;13.18;;;4.50;;
65375;SDS011;51976;47.332;9.404;2023-06-01T08:29:13;8.45;;;4.70;;
65375;SDS011;51976;47.332;9.404;2023-06-01T08:31:39;7.65;;;4.47;;
65375;SDS011;51976;47.332;9.404;2023-06-01T08:34:05;7.45;;;4.00;;
65375;SDS011;51976;47.332;9.404;2023-06-01T08:36:31;7.00;;;3.60;;
65375;SDS011;51976;47.332;9.404;2023-06-01T08:38:57;7.28;;;4.50;;
65375;SDS011;51976;47.332;9.404;2023-06-01T08:41:29;9.63;;;4.57;;
65375;SDS011;51976;47.332;9.404;2023-06-01T08:44:03;7.22;;;4.85;;
65375;SDS011;51976;47.332;9.404;2023-06-01T08:46:33;7.60;;;4.35;;
65375;SDS011;51976;47.332;9.404;2023-06-01T08:48:59;7.63;;;3.92;;
65375;SDS011;51976;47.332;9.404;2023-06-01T08:51:26;8.48;;;4.30;;
65375;SDS011;51976;47.332;9.404;2023-06-01T08:53:54;8.25;;;4.50;;
65375;SDS011;51976;47.332;9.404;2023-06-01T08:56:23;8.18;;;4.22;;
65375;SDS011;51976;47.332;9.404;2023-06-01T08:58:52;11.23;;;4.72;;
65375;SDS011;51976;47.332;9.404;2023-06-01T09:01:18;8.70;;;5.03;;
65375;SDS011;51976;47.332;9.404;2023-06-01T09:03:46;4.95;;;4.20;;
65375;SDS011;51976;47.332;9.404;2023-06-01T09:06:13;8.02;;;4.18;;
65375;SDS011;51976;47.332;9.404;2023-06-01T09:08:39;10.27;;;4.72;;
65375;SDS011;51976;47.332;9.404;2023-06-01T09:11:04;8.23;;;4.18;;
65375;SDS011;51976;47.332;9.404;2023-06-01T09:13:32;8.35;;;4.57;;
65375;SDS011;51976;47.332;9.404;2023-06-01T09:16:01;7.63;;;4.22;;
65375;SDS011;51976;47.332;9.404;2023-06-01T09:18:31;10.55;;;4.80;;
65375;SDS011;51976;47.332;9.404;2023-06-01T09:21:12;11.30;;;5.03;;
65375;SDS011;51976;47.332;9.404;2023-06-01T09:23:38;8.88;;;4.45;;
65375;SDS011;51976;47.332;9.404;2023-06-01T09:26:05;8.20;;;4.03;;
65375;SDS011;51976;47.332;9.404;2023-06-01T09:28:55;7.80;;;4.22;;
65375;SDS011;51976;47.332;9.404;2023-06-01T09:31:43;7.50;;;4.05;;
65375;SDS011;51976;47.332;9.404;2023-06-01T09:34:06;6.00;;;4.30;;
65375;SDS011;51976;47.332;9.404;2023-06-01T09:36:33;14.05;;;5.40;;
65375;SDS011;51976;47.332;9.404;2023-06-01T09:39:06;8.65;;;4.53;;
65375;SDS011;51976;47.332;9.404;2023-06-01T09:41:57;9.65;;;4.90;;
65375;SDS011;51976;47.332;9.404;2023-06-01T09:44:30;8.25;;;4.88;;
65375;SDS011;51976;47.332;9.404;2023-06-01T09:47:01;10.52;;;5.00;;
65375;SDS011;51976;47.332;9.404;2023-06-01T09:49:31;10.30;;;4.65;;
65375;SDS011;51976;47.332;9.404;2023-06-01T09:52:10;7.60;;;5.03;;
65375;SDS011;51976;47.332;9.404;2023-06-01T09:54:44;8.30;;;5.13;;
65375;SDS011;51976;47.332;9.404;2023-06-01T09:57:11;10.57;;;5.20;;
65375;SDS011;51976;47.332;9.404;2023-06-01T09:59:44;9.20;;;5.10;;
65375;SDS011;51976;47.332;9.404;2023-06-01T10:02:11;7.60;;;5.22;;
65375;SDS011;51976;47.332;9.404;2023-06-01T10:04:42;9.18;;;4.80;;
65375;SDS011;51976;47.332;9.404;2023-06-01T10:07:10;10.88;;;4.90;;
65375;SDS011;51976;47.332;9.404;2023-06-01T10:09:38;7.63;;;5.13;;
65375;SDS011;51976;47.332;9.404;2023-06-01T10:12:07;6.18;;;4.78;;
65375;SDS011;51976;47.332;9.404;2023-06-01T10:14:35;10.15;;;5.45;;
65375;SDS011;51976;47.332;9.404;2023-06-01T10:17:02;15.88;;;5.40;;
65375;SDS011;51976;47.332;9.404;2023-06-01T10:19:28;10.48;;;5.10;;
65375;SDS011;51976;47.332;9.404;2023-06-01T10:21:54;8.30;;;5.20;;
65375;SDS011;51976;47.332;9.404;2023-06-01T10:24:22;10.18;;;5.15;;
65375;SDS011;51976;47.332;9.404;2023-06-01T10:26:52;9.05;;;5.43;;
65375;SDS011;51976;47.332;9.404;2023-06-01T10:29:37;8.60;;;5.00;;
65375;SDS011;51976;47.332;9.404;2023-06-01T10:32:02;11.38;;;5.03;;
65375;SDS011;51976;47.332;9.404;2023-06-01T10:34:37;10.43;;;5.20;;
65375;SDS011;51976;47.332;9.404;2023-06-01T10:37:10;7.43;;;4.82;;
65375;SDS011;51976;47.332;9.404;2023-06-01T10:39:36;9.88;;;5.35;;
65375;SDS011;51976;47.332;9.404;2023-06-01T10:42:34;7.35;;;4.53;;
65375;SDS011;51976;47.332;9.404;2023-06-01T10:44:56;12.50;;;4.93;;
65375;SDS011;51976;47.332;9.404;2023-06-01T10:50:09;7.22;;;4.57;;
65375;SDS011;51976;47.332;9.404;2023-06-01T10:52:38;7.70;;;5.00;;
65375;SDS011;51976;47.332;9.404;2023-06-01T10:55:18;8.15;;;4.78;;
65375;SDS011;51976;47.332;9.404;2023-06-01T10:57:46;7.10;;;4.68;;
65375;SDS011;51976;47.332;9.404;2023-06-01T11:00:24;7.30;;;5.53;;
65375;SDS011;51976;47.332;9.404;2023-06-01T11:02:55;6.68;;;4.40;;
65375;SDS011;51976;47.332;9.404;2023-06-01T11:05:43;6.65;;;4.57;;
65375;SDS011;51976;47.332;9.404;2023-06-01T11:11:15;6.63;;;4.43;;
65375;SDS011;51976;47.332;9.404;2023-06-01T11:13:41;5.63;;;4.53;;
65375;SDS011;51976;47.332;9.404;2023-06-01T11:18:54;10.60;;;4.60;;
65375;SDS011;51976;47.332;9.404;2023-06-01T11:21:29;8.02;;;4.55;;
65375;SDS011;51976;47.332;9.404;2023-06-01T11:24:00;5.18;;;4.10;;
65375;SDS011;51976;47.332;9.404;2023-06-01T11:26:31;7.45;;;4.85;;
65375;SDS011;51976;47.332;9.404;2023-06-01T11:29:14;6.63;;;4.45;;
65375;SDS011;51976;47.332;9.404;2023-06-01T11:31:42;8.45;;;4.18;;
65375;SDS011;51976;47.332;9.404;2023-06-01T11:34:14;6.93;;;4.38;;
65375;SDS011;51976;47.332;9.404;2023-06-01T11:36:42;6.18;;;4.43;;
65375;SDS011;51976;47.332;9.404;2023-06-01T11:39:15;5.25;;;3.92;;
65375;SDS011;51976;47.332;9.404;2023-06-01T11:41:49;9.40;;;3.63;;
65375;SDS011;51976;47.332;9.404;2023-06-01T11:44:17;6.35;;;3.80;;
65375;SDS011;51976;47.332;9.404;2023-06-01T11:46:51;7.53;;;3.65;;
65375;SDS011;51976;47.332;9.404;2023-06-01T11:49:18;5.53;;;3.75;;
65375;SDS011;51976;47.332;9.404;2023-06-01T11:51:44;7.97;;;3.90;;
65375;SDS011;51976;47.332;9.404;2023-06-01T11:54:10;8.23;;;4.30;;
65375;SDS011;51976;47.332;9.404;2023-06-01T11:56:36;5.75;;;3.92;;
65375;SDS011;51976;47.332;9.404;2023-06-01T11:59:04;7.82;;;4.32;;
65375;SDS011;51976;47.332;9.404;2023-06-01T12:01:44;5.20;;;3.42;;
65375;SDS011;51976;47.332;9.404;2023-06-01T12:04:16;5.20;;;3.95;;
65375;SDS011;51976;47.332;9.404;2023-06-01T12:06:46;5.32;;;3.70;;
65375;SDS011;51976;47.332;9.404;2023-06-01T12:09:12;6.05;;;4.30;;
65375;SDS011;51976;47.332;9.404;2023-06-01T12:11:40;8.68;;;4.35;;
65375;SDS011;51976;47.332;9.404;2023-06-01T12:14:08;10.75;;;4.03;;
65375;SDS011;51976;47.332;9.404;2023-06-01T12:16:55;8.35;;;4.03;;
65375;SDS011;51976;47.332;9.404;2023-06-01T12:19:24;7.80;;;4.25;;
65375;SDS011;51976;47.332;9.404;2023-06-01T12:21:50;7.32;;;4.68;;
65375;SDS011;51976;47.332;9.404;2023-06-01T12:24:26;8.30;;;4.40;;
65375;SDS011;51976;47.332;9.404;2023-06-01T12:26:53;9.43;;;4.10;;
65375;SDS011;51976;47.332;9.404;2023-06-01T12:29:34;7.03;;;3.78;;
65375;SDS011;51976;47.332;9.404;2023-06-01T12:32:01;9.10;;;4.53;;
65375;SDS011;51976;47.332;9.404;2023-06-01T12:34:26;11.43;;;4.22;;
65375;SDS011;51976;47.332;9.404;2023-06-01T12:36:52;7.60;;;4.35;;
65375;SDS011;51976;47.332;9.404;2023-06-01T12:39:24;12.07;;;4.03;;
65375;SDS011;51976;47.332;9.404;2023-06-01T12:42:01;5.97;;;4.05;;
65375;SDS011;51976;47.332;9.404;2023-06-01T12:44:27;10.07;;;4.07;;
65375;SDS011;51976;47.332;9.404;2023-06-01T12:46:57;6.15;;;3.88;;
65375;SDS011;51976;47.332;9.404;2023-06-01T12:49:23;7.80;;;3.85;;
65375;SDS011;51976;47.332;9.404;2023-06-01T12:51:49;6.90;;;3.85;;
65375;SDS011;51976;47.332;9.404;2023-06-01T12:54:15;4.15;;;3.17;;
65375;SDS011;51976;47.332;9.404;2023-06-01T12:56:43;7.68;;;3.70;;
65375;SDS011;51976;47.332;9.404;2023-06-01T12:59:12;6.90;;;3.63;;
65375;SDS011;51976;47.332;9.404;2023-06-01T13:01:37;5.00;;;3.50;;
65375;SDS011;51976;47.332;9.404;2023-06-01T13:04:03;6.38;;;3.55;;
65375;SDS011;51976;47.332;9.404;2023-06-01T13:06:29;5.72;;;3.38;;
65375;SDS011;51976;47.332;9.404;2023-06-01T13:08:54;7.10;;;3.08;;
65375;SDS011;51976;47.332;9.404;2023-06-01T13:11:20;7.25;;;3.47;;
65375;SDS011;51976;47.332;9.404;2023-06-01T13:13:47;16.20;;;4.72;;
65375;SDS011;51976;47.332;9.404;2023-06-01T13:16:13;8.18;;;3.80;;
65375;SDS011;51976;47.332;9.404;2023-06-01T13:18:40;6.25;;;3.10;;
65375;SDS011;51976;47.332;9.404;2023-06-01T13:21:06;5.05;;;3.50;;
65375;SDS011;51976;47.332;9.404;2023-06-01T13:23:32;4.53;;;3.35;;
65375;SDS011;51976;47.332;9.404;2023-06-01T13:25:58;8.65;;;3.90;;
65375;SDS011;51976;47.332;9.404;2023-06-01T13:28:23;8.23;;;3.63;;
65375;SDS011;51976;47.332;9.404;2023-06-01T13:30:49;6.65;;;3.17;;
65375;SDS011;51976;47.332;9.404;2023-06-01T13:33:15;5.75;;;3.17;;
65375;SDS011;51976;47.332;9.404;2023-06-01T13:35:40;5.65;;;3.15;;
65375;SDS011;51976;47.332;9.404;2023-06-01T13:38:06;14.45;;;3.38;;
65375;SDS011;51976;47.332;9.404;2023-06-01T13:40:32;7.30;;;3.30;;
65375;SDS011;51976;47.332;9.404;2023-06-01T13:42:58;8.23;;;3.30;;
65375;SDS011;51976;47.332;9.404;2023-06-01T13:45:24;6.03;;;3.20;;
65375;SDS011;51976;47.332;9.404;2023-06-01T13:47:50;6.45;;;3.03;;
65375;SDS011;51976;47.332;9.404;2023-06-01T13:50:15;6.93;;;3.20;;
65375;SDS011;51976;47.332;9.404;2023-06-01T13:52:42;5.15;;;2.85;;
65375;SDS011;51976;47.332;9.404;2023-06-01T13:55:08;4.07;;;3.05;;
65375;SDS011;51976;47.332;9.404;2023-06-01T13:57:35;11.05;;;2.83;;
65375;SDS011;51976;47.332;9.404;2023-06-01T14:00:03;14.18;;;2.70;;
65375;SDS011;51976;47.332;9.404;2023-06-01T14:02:30;6.15;;;2.58;;
65375;SDS011;51976;47.332;9.404;2023-06-01T14:04:55;3.92;;;2.70;;
65375;SDS011;51976;47.332;9.404;2023-06-01T14:07:21;4.93;;;2.50;;
65375;SDS011;51976;47.332;9.404;2023-06-01T14:09:46;5.28;;;2.72;;
65375;SDS011;51976;47.332;9.404;2023-06-01T14:12:12;6.85;;;3.72;;
65375;SDS011;51976;47.332;9.404;2023-06-01T14:14:37;3.22;;;2.47;;
65375;SDS011;51976;47.332;9.404;2023-06-01T14:17:03;6.45;;;3.03;;
65375;SDS011;51976;47.332;9.404;2023-06-01T14:19:28;5.38;;;2.78;;
65375;SDS011;51976;47.332;9.404;2023-06-01T14:21:54;6.40;;;2.80;;
65375;SDS011;51976;47.332;9.404;2023-06-01T14:24:19;10.65;;;3.45;;
65375;SDS011;51976;47.332;9.404;2023-06-01T14:26:45;5.72;;;2.80;;
65375;SDS011;51976;47.332;9.404;2023-06-01T14:29:11;6.30;;;2.78;;
65375;SDS011;51976;47.332;9.404;2023-06-01T14:31:36;3.97;;;2.55;;
65375;SDS011;51976;47.332;9.404;2023-06-01T14:34:02;5.65;;;3.17;;
65375;SDS011;51976;47.332;9.404;2023-06-01T14:36:27;6.80;;;3.38;;
65375;SDS011;51976;47.332;9.404;2023-06-01T14:38:53;7.78;;;3.10;;
65375;SDS011;51976;47.332;9.404;2023-06-01T14:41:18;8.20;;;4.57;;
65375;SDS011;51976;47.332;9.404;2023-06-01T14:43:44;4.55;;;3.47;;
65375;SDS011;51976;47.332;9.404;2023-06-01T14:46:10;6.95;;;4.40;;
65375;SDS011;51976;47.332;9.404;2023-06-01T14:48:35;7.45;;;3.80;;
65375;SDS011;51976;47.332;9.404;2023-06-01T14:51:00;5.78;;;3.03;;
65375;SDS011;51976;47.332;9.404;2023-06-01T14:53:26;6.13;;;3.30;;
65375;SDS011;51976;47.332;9.404;2023-06-01T14:55:52;5.90;;;3.78;;
65375;SDS011;51976;47.332;9.404;2023-06-01T14:58:17;3.80;;;2.50;;